Time;durP1;ratioP1;P1;durP2;ratioP2;P2;SDS_P1;SDS_P2;PMS_P1;PMS_P2;Temp;Humidity;BMP_temperature;BMP_pressure;BME280_temperature;BME280_humidity;BME280_pressure;Samples;Min_cycle;Max_cycle;Signal;HPM_P1;HPM_P2
2022/04/20 00:00:34;;;;;;;12.20;10.90;;;2.20;99.90;;;;;;5030598;28;20187;-57
2022/04/20 00:02:59;;;;;;;13.73;11.27;;;2.20;99.90;;;;;;5030398;28;20264;-55
2022/04/20 00:05:25;;;;;;;11.67;10.40;;;2.10;99.90;;;;;;5030173;28;20214;-57
2022/04/20 00:07:51;;;;;;;12.00;10.77;;;2.10;99.90;;;;;;5030358;28;20461;-58
2022/04/20 00:10:16;;;;;;;11.37;10.03;;;2.10;99.90;;;;;;5030004;28;20555;-53
2022/04/20 00:12:42;;;;;;;14.50;10.23;;;2.10;99.90;;;;;;5024359;28;20199;-58
2022/04/20 00:15:08;;;;;;;11.77;10.50;;;2.10;99.90;;;;;;5027932;28;20556;-58
2022/04/20 00:17:33;;;;;;;14.97;12.07;;;2.10;99.90;;;;;;5031043;28;20187;-59
2022/04/20 00:19:59;;;;;;;12.47;11.17;;;2.10;99.90;;;;;;5028468;28;20967;-58
2022/04/20 00:22:24;;;;;;;12.73;11.40;;;2.10;99.90;;;;;;5022563;28;20511;-59
2022/04/20 00:24:50;;;;;;;12.03;10.77;;;2.00;99.90;;;;;;5027780;28;20189;-58
2022/04/20 00:27:15;;;;;;;12.67;10.90;;;2.00;99.90;;;;;;5030846;28;20187;-56
2022/04/20 00:29:41;;;;;;;13.23;11.17;;;2.00;99.90;;;;;;5028853;28;21004;-58
2022/04/20 00:32:07;;;;;;;14.67;10.77;;;1.90;99.90;;;;;;5008460;28;20792;-59
2022/04/20 00:34:33;;;;;;;14.27;11.00;;;1.90;99.90;;;;;;5027238;28;20183;-58
2022/04/20 00:36:59;;;;;;;13.87;10.57;;;1.90;99.90;;;;;;5029698;28;20888;-57
2022/04/20 00:39:25;;;;;;;11.70;10.37;;;1.90;99.90;;;;;;5028547;28;20215;-58
2022/04/20 00:41:51;;;;;;;11.57;10.37;;;1.90;99.90;;;;;;5029981;28;20226;-59
2022/04/20 00:44:17;;;;;;;11.35;10.15;;;1.80;99.90;;;;;;5028843;28;20530;-59
2022/04/20 00:46:45;;;;;;;13.20;10.70;;;1.80;99.90;;;;;;5028507;28;20739;-58
2022/04/20 00:49:12;;;;;;;13.80;10.20;;;1.80;99.90;;;;;;5028837;28;20674;-58
2022/04/20 00:51:58;;;;;;;11.98;10.43;;;1.80;99.90;;;;;;5029442;28;20621;-58
2022/04/20 00:54:24;;;;;;;12.30;10.20;;;1.70;99.90;;;;;;5030635;28;20236;-57
2022/04/20 00:56:50;;;;;;;14.23;10.85;;;1.70;99.90;;;;;;5030449;28;20216;-58
2022/04/20 00:59:18;;;;;;;14.20;11.13;;;1.70;99.90;;;;;;5011909;28;20218;-57
2022/04/20 01:01:44;;;;;;;12.00;10.80;;;1.70;99.90;;;;;;5030140;28;20513;-56
2022/04/20 01:04:10;;;;;;;12.20;10.90;;;1.60;99.90;;;;;;5032152;28;20256;-58
2022/04/20 01:06:35;;;;;;;11.63;9.57;;;1.60;99.90;;;;;;5029917;28;20187;-57
2022/04/20 01:09:01;;;;;;;13.37;10.40;;;1.60;99.90;;;;;;5023646;28;20191;-57
2022/04/20 01:11:27;;;;;;;13.87;10.43;;;1.60;99.90;;;;;;5011546;28;20194;-58
2022/04/20 01:13:53;;;;;;;12.80;11.00;;;1.60;99.90;;;;;;5028518;28;20653;-55
2022/04/20 01:16:19;;;;;;;14.50;10.85;;;1.60;99.90;;;;;;5026740;28;20187;-58
2022/04/20 01:18:45;;;;;;;13.20;11.07;;;1.50;99.90;;;;;;5018790;28;20284;-57
2022/04/20 01:21:11;;;;;;;12.17;10.33;;;1.50;99.90;;;;;;5027927;28;20202;-57
2022/04/20 01:23:38;;;;;;;13.82;11.07;;;1.40;99.90;;;;;;5028342;28;20187;-56
2022/04/20 01:26:08;;;;;;;14.57;11.85;;;1.40;99.90;;;;;;5028452;28;20225;-58
2022/04/20 01:28:35;;;;;;;13.02;11.13;;;1.40;99.90;;;;;;5027733;28;20183;-57
2022/04/20 01:31:01;;;;;;;14.55;10.80;;;1.30;99.90;;;;;;5027808;28;20676;-58
2022/04/20 01:33:26;;;;;;;14.17;11.57;;;1.20;99.90;;;;;;5029768;28;20186;-56
2022/04/20 01:35:52;;;;;;;12.47;10.17;;;1.20;99.90;;;;;;5029734;28;20450;-58
2022/04/20 01:38:17;;;;;;;12.37;10.30;;;1.20;99.90;;;;;;5027295;28;20214;-58
2022/04/20 01:40:43;;;;;;;12.43;9.97;;;1.10;99.90;;;;;;5028474;28;20198;-57
2022/04/20 01:43:09;;;;;;;12.00;10.37;;;1.10;99.90;;;;;;5028486;28;20198;-57
2022/04/20 01:45:34;;;;;;;14.60;11.10;;;1.10;99.90;;;;;;5029419;28;20637;-57
2022/04/20 01:48:00;;;;;;;12.30;10.20;;;1.10;99.90;;;;;;5023272;28;20214;-58
2022/04/20 01:50:25;;;;;;;11.97;10.33;;;1.10;99.90;;;;;;5028540;28;20198;-55
2022/04/20 01:52:51;;;;;;;13.60;10.90;;;1.10;99.90;;;;;;5027279;28;20191;-56
2022/04/20 01:55:17;;;;;;;14.10;11.67;;;1.00;99.90;;;;;;5008050;28;20191;-59
2022/04/20 01:57:43;;;;;;;12.70;10.63;;;1.00;99.90;;;;;;5028625;28;20196;-57
2022/04/20 02:00:10;;;;;;;13.73;10.60;;;1.00;99.90;;;;;;5024638;28;20560;-58
2022/04/20 02:02:35;;;;;;;11.98;10.63;;;1.00;99.90;;;;;;5017618;28;20179;-59
2022/04/20 02:05:06;;;;;;;12.17;10.97;;;1.00;99.90;;;;;;5028720;28;20311;-59
2022/04/20 02:07:32;;;;;;;13.25;10.90;;;1.00;99.90;;;;;;5028690;28;20268;-59
2022/04/20 02:09:59;;;;;;;13.17;11.30;;;1.00;99.90;;;;;;5027203;28;20317;-58
2022/04/20 02:12:24;;;;;;;14.32;11.80;;;0.90;99.90;;;;;;5028448;28;20446;-56
2022/04/20 02:14:50;;;;;;;15.27;12.00;;;0.90;99.90;;;;;;5028541;28;20559;-59
2022/04/20 02:17:16;;;;;;;13.70;10.90;;;0.90;99.90;;;;;;5029164;28;20197;-57
2022/04/20 02:19:41;;;;;;;13.33;11.70;;;0.90;99.90;;;;;;5026585;28;20302;-59
2022/04/20 02:22:07;;;;;;;14.87;11.30;;;0.90;99.90;;;;;;5026772;28;20217;-58
2022/04/20 02:24:32;;;;;;;13.00;11.60;;;0.90;99.90;;;;;;5028296;28;20190;-59
2022/04/20 02:26:58;;;;;;;18.13;11.10;;;0.90;99.90;;;;;;5030000;28;20193;-60
2022/04/20 02:29:24;;;;;;;16.20;11.27;;;0.80;99.90;;;;;;5027405;28;20190;-57
2022/04/20 02:31:50;;;;;;;15.15;12.23;;;0.80;99.90;;;;;;5027924;28;20199;-57
2022/04/20 02:34:15;;;;;;;16.27;11.70;;;0.80;99.90;;;;;;5032139;28;20210;-55
2022/04/20 02:36:42;;;;;;;14.67;11.13;;;0.80;99.90;;;;;;5028723;28;20191;-59
2022/04/20 02:39:07;;;;;;;14.10;11.48;;;0.80;99.90;;;;;;5027187;28;20230;-58
2022/04/20 02:41:36;;;;;;;15.43;11.80;;;0.80;99.90;;;;;;5026985;28;20230;-59
2022/04/20 02:44:03;;;;;;;14.25;11.93;;;0.80;99.90;;;;;;5027644;28;20175;-57
2022/04/20 02:46:29;;;;;;;14.07;11.30;;;0.80;99.90;;;;;;5027266;28;20197;-58
2022/04/20 02:48:54;;;;;;;13.17;11.60;;;0.80;99.90;;;;;;5019067;28;20195;-59
2022/04/20 02:51:20;;;;;;;13.30;11.37;;;0.80;99.90;;;;;;5028405;28;20198;-59
2022/04/20 02:53:45;;;;;;;15.30;12.30;;;0.80;99.90;;;;;;5028689;28;20245;-59
2022/04/20 02:56:11;;;;;;;13.17;10.63;;;0.70;99.90;;;;;;5027906;28;20202;-59
2022/04/20 02:58:37;;;;;;;11.97;10.50;;;0.70;99.90;;;;;;5030748;28;20203;-60
2022/04/20 03:01:03;;;;;;;14.77;11.90;;;0.70;99.90;;;;;;5031855;28;20183;-59
2022/04/20 03:03:28;;;;;;;16.00;11.00;;;0.70;99.90;;;;;;5031443;28;20186;-58
2022/04/20 03:05:54;;;;;;;12.60;10.60;;;0.60;99.90;;;;;;5037985;28;21734;-56
2022/04/20 03:08:20;;;;;;;13.80;10.75;;;0.60;99.90;;;;;;5032304;28;20174;-55
2022/04/20 03:10:46;;;;;;;12.20;10.53;;;0.70;99.90;;;;;;5023616;28;20957;-56
2022/04/20 03:13:11;;;;;;;11.73;10.53;;;0.70;99.90;;;;;;5031370;28;20187;-55
2022/04/20 03:15:37;;;;;;;12.20;10.80;;;0.70;99.90;;;;;;5031556;28;20191;-58
2022/04/20 03:18:02;;;;;;;14.83;12.10;;;0.60;99.90;;;;;;5031406;28;20190;-57
2022/04/20 03:20:28;;;;;;;17.17;12.00;;;0.60;99.90;;;;;;5008217;28;20179;-55
2022/04/20 03:22:54;;;;;;;16.90;12.00;;;0.50;99.90;;;;;;5032246;28;20188;-58
2022/04/20 03:25:19;;;;;;;14.37;11.67;;;0.50;99.90;;;;;;5030697;28;22239;-57
2022/04/20 03:27:45;;;;;;;13.67;11.47;;;0.50;99.90;;;;;;5032563;28;20665;-55
2022/04/20 03:30:12;;;;;;;15.83;12.30;;;0.50;99.90;;;;;;5029923;28;20206;-55
2022/04/20 03:32:39;;;;;;;15.07;11.43;;;0.60;99.90;;;;;;5030775;28;20187;-56
2022/04/20 03:35:05;;;;;;;13.43;11.65;;;0.50;99.90;;;;;;5014063;28;20191;-56
2022/04/20 03:37:31;;;;;;;14.63;12.23;;;0.50;99.90;;;;;;5031177;28;20646;-57
2022/04/20 03:39:57;;;;;;;14.60;12.00;;;0.50;99.90;;;;;;5029980;28;20340;-58
2022/04/20 03:42:22;;;;;;;14.30;12.20;;;0.40;99.90;;;;;;5028876;28;20469;-58
2022/04/20 03:44:48;;;;;;;14.60;11.80;;;0.50;99.90;;;;;;5021089;28;20217;-55
2022/04/20 03:47:13;;;;;;;14.17;11.63;;;0.50;99.90;;;;;;5030546;28;20206;-54
2022/04/20 03:49:39;;;;;;;18.00;11.87;;;0.50;99.90;;;;;;5030647;28;20183;-54
2022/04/20 03:52:07;;;;;;;16.13;12.40;;;0.50;99.90;;;;;;5033640;28;20197;-57
2022/04/20 03:54:34;;;;;;;16.45;13.13;;;0.60;99.90;;;;;;5028335;28;20202;-57
2022/04/20 03:57:07;;;;;;;17.10;12.82;;;0.50;99.90;;;;;;5025818;28;20283;-57
2022/04/20 03:59:34;;;;;;;15.52;12.30;;;0.60;99.90;;;;;;5029412;28;20217;-54
2022/04/20 04:02:00;;;;;;;15.05;12.05;;;0.50;99.90;;;;;;5030591;28;20282;-58
2022/04/20 04:04:25;;;;;;;14.07;11.60;;;0.60;99.90;;;;;;5029396;28;20254;-57
2022/04/20 04:06:51;;;;;;;17.90;12.57;;;0.60;99.90;;;;;;5030977;28;20183;-57
2022/04/20 04:09:16;;;;;;;16.37;13.07;;;0.70;99.90;;;;;;5030327;28;20218;-53
2022/04/20 04:11:42;;;;;;;17.30;12.67;;;0.70;99.90;;;;;;5028018;28;20225;-57
2022/04/20 04:14:07;;;;;;;16.93;12.33;;;0.70;99.90;;;;;;5026414;28;20193;-57
2022/04/20 04:16:39;;;;;;;17.60;13.13;;;0.80;99.90;;;;;;5031091;28;20213;-56
2022/04/20 04:19:06;;;;;;;16.27;12.75;;;0.80;99.90;;;;;;5028442;28;20206;-58
2022/04/20 04:21:35;;;;;;;15.35;12.60;;;0.90;99.90;;;;;;5021259;28;21011;-56
2022/04/20 04:24:00;;;;;;;16.00;12.45;;;0.90;99.90;;;;;;5021959;28;20265;-56
2022/04/20 04:26:28;;;;;;;14.53;12.00;;;1.00;99.90;;;;;;5018919;28;20593;-54
2022/04/20 04:28:53;;;;;;;16.23;12.35;;;1.10;99.90;;;;;;5020530;28;20694;-55
2022/04/20 04:31:23;;;;;;;14.50;11.97;;;1.10;99.90;;;;;;5020681;28;20278;-57
2022/04/20 04:33:49;;;;;;;15.70;12.90;;;1.10;99.90;;;;;;4997982;28;20962;-58
2022/04/20 04:36:15;;;;;;;16.70;12.35;;;1.10;99.90;;;;;;5002674;28;20195;-51
2022/04/20 04:38:40;;;;;;;13.70;12.10;;;1.20;99.90;;;;;;5020998;28;20223;-56
2022/04/20 04:41:06;;;;;;;17.33;12.53;;;1.30;99.90;;;;;;5021113;28;20685;-54
2022/04/20 04:43:31;;;;;;;16.43;12.40;;;1.40;99.90;;;;;;5019890;28;20190;-53
2022/04/20 04:48:42;;;;;;;17.80;13.05;;;1.60;99.90;;;;;;5030375;28;20674;-56
2022/04/20 04:51:10;;;;;;;15.43;11.67;;;1.70;99.90;;;;;;5010619;28;20305;-51
2022/04/20 04:53:36;;;;;;;14.18;11.30;;;1.80;99.90;;;;;;5027348;28;20438;-54
2022/04/20 04:56:02;;;;;;;18.95;12.55;;;1.80;99.90;;;;;;5029551;28;20645;-56
2022/04/20 04:58:27;;;;;;;13.93;11.70;;;1.80;99.90;;;;;;5031037;28;20214;-56
2022/04/20 05:00:53;;;;;;;14.03;11.20;;;1.90;99.90;;;;;;5028439;28;20441;-56
2022/04/20 05:03:19;;;;;;;16.60;12.17;;;1.90;99.90;;;;;;5030419;28;20552;-54
2022/04/20 05:05:45;;;;;;;14.05;11.50;;;1.90;99.90;;;;;;5030158;28;20270;-56
2022/04/20 05:08:11;;;;;;;16.95;12.68;;;1.80;99.90;;;;;;5030782;28;20266;-57
2022/04/20 05:10:37;;;;;;;13.77;11.67;;;1.90;99.90;;;;;;5030018;28;20273;-56
2022/04/20 05:13:06;;;;;;;13.00;11.17;;;1.80;99.90;;;;;;5030109;28;20205;-52
2022/04/20 05:15:32;;;;;;;13.50;11.52;;;1.80;99.90;;;;;;5029980;28;20194;-55
2022/04/20 05:17:57;;;;;;;14.90;11.30;;;1.90;99.90;;;;;;5030429;28;20179;-55
2022/04/20 05:20:23;;;;;;;15.87;11.27;;;2.00;99.90;;;;;;5028817;28;20473;-53
2022/04/20 05:22:49;;;;;;;14.40;11.07;;;1.90;99.90;;;;;;5021290;28;20249;-54
2022/04/20 05:25:15;;;;;;;13.90;11.30;;;2.00;99.90;;;;;;5030346;28;20211;-55
2022/04/20 05:27:41;;;;;;;14.00;11.27;;;2.10;99.90;;;;;;5031690;28;20207;-51
2022/04/20 05:30:10;;;;;;;14.20;11.70;;;2.20;99.90;;;;;;5025134;28;20206;-56
2022/04/20 05:32:36;;;;;;;14.93;10.90;;;2.30;99.90;;;;;;5028270;28;20205;-56
2022/04/20 05:35:02;;;;;;;13.63;11.50;;;2.50;99.90;;;;;;5015850;28;20186;-55
2022/04/20 05:42:57;;;;;;;15.57;12.50;;;2.80;99.90;;;;;;5033147;28;20711;-54
2022/04/20 05:45:23;;;;;;;15.55;12.65;;;2.90;99.90;;;;;;5028590;28;20182;-54
2022/04/20 05:47:49;;;;;;;13.63;11.60;;;2.90;99.90;;;;;;5023806;28;20650;-57
2022/04/20 05:50:15;;;;;;;18.17;12.20;;;2.80;99.90;;;;;;5027209;28;20197;-55
2022/04/20 05:52:40;;;;;;;13.53;12.13;;;3.00;99.90;;;;;;5024660;28;20454;-55
2022/04/20 05:55:07;;;;;;;12.30;10.63;;;3.10;99.90;;;;;;5028099;28;20437;-57
2022/04/20 05:57:33;;;;;;;15.63;12.38;;;3.20;99.90;;;;;;5028112;28;20186;-53
2022/04/20 05:59:59;;;;;;;14.02;11.88;;;3.30;99.90;;;;;;5026862;28;20214;-56
2022/04/20 06:02:24;;;;;;;14.73;12.13;;;3.20;99.90;;;;;;5028218;28;20209;-56
2022/04/20 06:04:50;;;;;;;17.20;12.13;;;3.30;99.90;;;;;;5028404;28;20204;-57
2022/04/20 06:07:16;;;;;;;13.13;11.73;;;3.40;99.90;;;;;;5008228;28;20192;-56
2022/04/20 06:09:41;;;;;;;14.33;11.83;;;3.40;99.90;;;;;;5027607;28;20218;-57
2022/04/20 06:12:07;;;;;;;13.60;11.60;;;3.40;99.90;;;;;;5027879;28;20187;-55
2022/04/20 06:14:33;;;;;;;12.70;11.30;;;3.50;99.90;;;;;;5030853;28;20869;-57
2022/04/20 06:16:59;;;;;;;14.20;12.30;;;3.50;99.90;;;;;;5032983;28;20187;-55
2022/04/20 06:19:24;;;;;;;15.97;11.87;;;3.60;99.90;;;;;;5008511;28;20233;-54
2022/04/20 06:21:50;;;;;;;15.83;12.57;;;3.70;99.90;;;;;;5020648;28;20238;-55
2022/04/20 06:24:15;;;;;;;13.80;12.30;;;3.90;99.90;;;;;;5037258;28;20183;-56
2022/04/20 06:26:41;;;;;;;14.60;12.77;;;4.00;99.90;;;;;;5028484;28;20218;-56
2022/04/20 06:29:07;;;;;;;14.47;11.83;;;3.90;99.90;;;;;;5027305;28;20190;-56
2022/04/20 06:31:32;;;;;;;14.35;12.25;;;3.90;99.90;;;;;;5028519;28;20198;-54
2022/04/20 06:33:59;;;;;;;16.07;13.17;;;3.90;99.90;;;;;;5028880;28;20239;-52
2022/04/20 06:36:25;;;;;;;15.55;12.40;;;3.90;99.90;;;;;;5027850;28;20273;-57
2022/04/20 06:38:51;;;;;;;13.47;11.97;;;4.00;99.90;;;;;;5027304;28;20306;-54
2022/04/20 06:41:17;;;;;;;14.57;12.30;;;4.00;99.90;;;;;;5038964;28;20555;-55
2022/04/20 06:43:43;;;;;;;13.63;12.23;;;4.20;99.90;;;;;;5027835;28;20633;-56
2022/04/20 06:46:09;;;;;;;15.00;12.37;;;4.40;99.90;;;;;;5023630;28;20194;-53
2022/04/20 06:48:34;;;;;;;14.30;11.73;;;4.40;99.90;;;;;;5022754;28;20195;-51
2022/04/20 06:51:03;;;;;;;14.20;12.50;;;4.30;99.90;;;;;;5025673;28;20462;-55
2022/04/20 06:58:57;;;;;;;15.77;12.65;;;4.90;99.90;;;;;;5027420;28;20222;-52
2022/04/20 07:01:23;;;;;;;13.80;12.40;;;5.10;99.90;;;;;;5009376;28;20188;-57
2022/04/20 07:03:48;;;;;;;14.30;12.33;;;5.20;99.90;;;;;;5026866;28;20282;-53
2022/04/20 07:06:14;;;;;;;13.63;12.10;;;5.20;99.90;;;;;;5027020;28;20180;-51
2022/04/20 07:08:40;;;;;;;13.13;11.83;;;5.30;99.90;;;;;;5027975;28;20186;-57
2022/04/20 07:11:05;;;;;;;14.60;12.67;;;5.40;99.90;;;;;;5027904;28;20201;-57
2022/04/20 07:13:31;;;;;;;13.67;12.27;;;5.50;99.90;;;;;;5027717;28;20194;-57
2022/04/20 07:15:56;;;;;;;13.57;12.17;;;5.70;99.90;;;;;;5028159;28;20179;-57
2022/04/20 07:18:23;;;;;;;15.20;12.90;;;5.80;99.90;;;;;;5028215;28;20183;-50
2022/04/20 07:20:49;;;;;;;13.60;12.07;;;5.90;99.90;;;;;;5017742;28;20184;-58
2022/04/20 07:23:15;;;;;;;13.13;11.82;;;6.00;99.90;;;;;;5023193;28;20198;-55
2022/04/20 07:25:40;;;;;;;14.87;12.87;;;6.20;99.90;;;;;;5023273;28;20202;-54
2022/04/20 07:28:06;;;;;;;13.63;12.00;;;6.30;99.90;;;;;;5036025;28;20187;-56
2022/04/20 07:30:33;;;;;;;13.83;12.40;;;6.30;99.90;;;;;;5028030;28;20190;-57
2022/04/20 07:32:59;;;;;;;14.68;13.13;;;6.40;99.90;;;;;;5018654;28;20330;-58
2022/04/20 07:35:25;;;;;;;14.00;12.50;;;6.50;99.90;;;;;;5026940;28;20219;-57
2022/04/20 07:37:50;;;;;;;13.97;12.57;;;6.70;99.90;;;;;;5027658;28;20179;-56
2022/04/20 07:40:16;;;;;;;13.77;12.37;;;6.90;99.90;;;;;;5036103;28;20214;-55
2022/04/20 07:42:42;;;;;;;14.90;13.20;;;7.00;99.90;;;;;;5033931;28;20322;-55
2022/04/20 07:45:09;;;;;;;13.53;12.23;;;7.00;99.90;;;;;;5012611;28;20187;-55
2022/04/20 07:47:34;;;;;;;16.17;12.80;;;6.90;99.90;;;;;;5031498;28;20420;-56
2022/04/20 07:50:18;;;;;;;15.67;14.20;;;7.10;99.90;;;;;;5031321;28;20425;-56
2022/04/20 07:52:47;;;;;;;14.77;13.20;;;6.90;99.90;;;;;;5029287;28;20276;-54
2022/04/20 07:55:20;;;;;;;14.27;12.77;;;7.00;99.90;;;;;;5031169;28;20768;-55
2022/04/20 07:57:47;;;;;;;14.10;12.77;;;7.20;99.90;;;;;;5028976;28;20995;-55
2022/04/20 08:00:14;;;;;;;15.00;13.50;;;7.40;99.90;;;;;;5030638;28;20456;-54
2022/04/20 08:02:41;;;;;;;14.27;12.97;;;7.50;99.90;;;;;;5025197;28;20524;-55
2022/04/20 08:05:07;;;;;;;13.93;12.40;;;7.70;99.90;;;;;;5031421;28;20479;-55
2022/04/20 08:07:33;;;;;;;14.07;12.50;;;7.80;99.80;;;;;;5022403;28;20458;-54
2022/04/20 08:09:59;;;;;;;15.27;13.67;;;7.90;99.80;;;;;;5029819;28;20429;-54
2022/04/20 08:12:28;;;;;;;15.00;13.40;;;8.10;99.20;;;;;;5032429;28;20440;-57
2022/04/20 08:14:54;;;;;;;14.10;12.70;;;8.20;99.70;;;;;;5031171;28;20179;-57
2022/04/20 08:17:19;;;;;;;14.10;12.70;;;8.50;98.50;;;;;;5012278;28;20450;-51
2022/04/20 08:19:45;;;;;;;17.20;13.33;;;8.70;97.90;;;;;;5030622;28;20467;-56
2022/04/20 08:22:12;;;;;;;16.70;14.90;;;9.10;96.60;;;;;;5028772;28;20187;-56
2022/04/20 08:24:38;;;;;;;16.27;14.67;;;9.10;94.90;;;;;;5030940;28;20705;-54
2022/04/20 08:27:03;;;;;;;16.93;13.90;;;9.20;94.00;;;;;;5027884;28;20462;-54
2022/04/20 08:29:29;;;;;;;15.23;13.73;;;9.40;93.60;;;;;;5030671;28;20179;-57
2022/04/20 08:31:54;;;;;;;17.13;15.57;;;9.60;93.20;;;;;;5028895;28;20183;-54
2022/04/20 08:34:20;;;;;;;18.53;16.63;;;9.60;92.70;;;;;;5030705;28;20800;-55
2022/04/20 08:36:45;;;;;;;15.87;14.47;;;9.70;92.30;;;;;;5030957;28;20201;-56
2022/04/20 08:39:11;;;;;;;15.83;14.33;;;9.90;91.40;;;;;;5030969;28;20209;-55
2022/04/20 08:41:37;;;;;;;16.03;14.53;;;9.80;90.90;;;;;;5039622;28;20341;-57
2022/04/20 08:44:05;;;;;;;16.10;14.50;;;9.90;91.20;;;;;;5029593;28;20186;-53
2022/04/20 08:46:37;;;;;;;18.70;16.90;;;10.00;90.40;;;;;;5030278;28;20181;-53
2022/04/20 08:49:04;;;;;;;16.63;15.03;;;10.00;90.40;;;;;;5029964;28;20463;-54
2022/04/20 08:52:37;;;;;;;16.03;14.53;;;10.20;90.10;;;;;;5029631;28;20417;-56
2022/04/20 08:54:18;;;;;;;16.20;14.60;;;10.20;87.80;;;;;;5031533;28;20461;-56
2022/04/20 08:59:30;;;;;;;16.87;15.17;;;9.90;91.20;;;;;;5042748;28;21362;-55
2022/04/20 09:01:59;;;;;;;30.03;26.93;;;9.90;91.70;;;;;;5026447;28;20492;-52
2022/04/20 09:04:24;;;;;;;16.60;15.10;;;9.80;92.20;;;;;;5017821;28;20438;-54
2022/04/20 09:06:50;;;;;;;14.60;13.23;;;9.70;91.90;;;;;;5029541;28;20493;-55
2022/04/20 09:09:18;;;;;;;16.03;14.50;;;9.80;91.90;;;;;;5030664;28;21005;-52
2022/04/20 09:11:46;;;;;;;16.80;15.10;;;9.90;91.60;;;;;;5030243;28;20213;-56
2022/04/20 09:14:13;;;;;;;15.20;13.80;;;9.80;92.10;;;;;;5033615;28;20982;-56
2022/04/20 09:16:39;;;;;;;17.40;15.67;;;10.00;91.90;;;;;;5033351;28;20442;-55
2022/04/20 09:19:06;;;;;;;16.33;14.73;;;10.10;91.50;;;;;;5028267;28;20461;-51
2022/04/20 09:21:34;;;;;;;16.87;15.27;;;10.10;91.00;;;;;;5029954;28;20950;-56
2022/04/20 09:24:07;;;;;;;17.80;16.00;;;10.20;90.50;;;;;;5029715;28;21217;-52
2022/04/20 09:26:32;;;;;;;17.30;15.40;;;10.10;90.70;;;;;;5029542;28;20982;-54
2022/04/20 09:29:08;;;;;;;16.80;15.20;;;10.20;91.20;;;;;;5016156;28;20438;-56
2022/04/20 09:31:41;;;;;;;16.30;14.83;;;10.40;91.20;;;;;;5022505;28;20540;-55
2022/04/20 09:34:07;;;;;;;19.90;17.90;;;10.50;90.40;;;;;;5029837;28;20520;-54
2022/04/20 09:36:48;;;;;;;18.60;16.80;;;10.70;89.30;;;;;;5025196;28;20523;-56
2022/04/20 09:39:13;;;;;;;26.57;23.93;;;10.60;89.30;;;;;;5029293;28;20206;-55
2022/04/20 09:42:02;;;;;;;17.00;15.40;;;10.90;88.00;;;;;;5034047;28;20472;-58
2022/04/20 09:44:31;;;;;;;17.17;15.57;;;11.00;87.00;;;;;;5029252;28;20187;-56
2022/04/20 09:49:56;;;;;;;17.10;15.50;;;11.20;85.30;;;;;;5029487;28;20560;-56
2022/04/20 09:52:23;;;;;;;17.50;15.80;;;11.30;85.50;;;;;;5028341;28;20454;-57
2022/04/20 09:54:53;;;;;;;16.73;15.03;;;11.30;84.50;;;;;;5029557;28;20424;-52
2022/04/20 09:57:20;;;;;;;72.60;60.83;;;11.40;82.40;;;;;;5033698;28;20445;-57
2022/04/20 09:59:59;;;;;;;28.10;25.30;;;11.40;81.90;;;;;;5027641;28;20508;-55
2022/04/20 10:02:25;;;;;;;20.87;18.87;;;11.30;81.70;;;;;;5035177;28;20483;-55
2022/04/20 10:04:52;;;;;;;17.77;16.17;;;11.30;82.70;;;;;;5028670;28;20426;-54
2022/04/20 10:07:18;;;;;;;15.93;14.43;;;11.30;81.80;;;;;;5028647;28;20444;-54
2022/04/20 10:09:43;;;;;;;15.33;13.97;;;11.40;78.80;;;;;;5028872;28;20418;-51
2022/04/20 10:12:13;;;;;;;14.70;13.40;;;11.30;79.20;;;;;;5028085;28;20183;-56
2022/04/20 10:17:26;;;;;;;17.63;16.03;;;11.30;77.30;;;;;;5016742;28;20974;-56
2022/04/20 10:19:53;;;;;;;13.97;12.77;;;11.30;76.40;;;;;;5027459;28;20487;-57
2022/04/20 10:22:20;;;;;;;14.10;12.60;;;11.30;76.90;;;;;;5028245;28;20429;-57
2022/04/20 10:24:48;;;;;;;14.27;12.77;;;11.20;76.90;;;;;;5027699;28;21017;-55
2022/04/20 10:27:28;;;;;;;14.20;12.90;;;11.20;77.60;;;;;;5034113;28;20452;-54
2022/04/20 10:29:59;;;;;;;13.80;12.50;;;11.20;76.80;;;;;;5028851;28;20422;-54
2022/04/20 10:33:10;;;;;;;13.87;12.57;;;11.00;75.30;;;;;;5028711;28;20448;-56
2022/04/20 10:35:54;;;;;;;12.43;11.30;;;10.90;76.20;;;;;;5021816;28;20521;-52
2022/04/20 10:38:21;;;;;;;12.83;11.70;;;11.00;76.50;;;;;;5034859;28;20440;-57
2022/04/20 10:41:19;;;;;;;15.77;13.20;;;10.80;78.30;;;;;;5035550;28;20452;-56
2022/04/20 10:43:45;;;;;;;13.40;12.20;;;10.80;81.60;;;;;;5004449;28;20444;-52
2022/04/20 10:46:17;;;;;;;14.27;12.23;;;10.70;83.10;;;;;;5022786;28;20466;-57
2022/04/20 10:48:43;;;;;;;12.80;11.70;;;10.60;83.40;;;;;;5027622;28;20496;-55
2022/04/20 10:51:14;;;;;;;12.37;11.23;;;10.50;84.80;;;;;;5028327;28;20433;-52
2022/04/20 10:53:43;;;;;;;12.60;11.40;;;10.30;87.40;;;;;;5024639;28;20258;-53
2022/04/20 10:56:09;;;;;;;12.73;11.63;;;10.20;89.10;;;;;;5022243;28;20429;-53
2022/04/20 10:58:35;;;;;;;13.30;12.10;;;10.20;91.30;;;;;;5028555;28;20553;-57
2022/04/20 11:01:09;;;;;;;12.83;11.63;;;10.10;92.90;;;;;;5032076;28;20524;-56
2022/04/20 11:03:58;;;;;;;13.57;12.37;;;10.00;95.10;;;;;;5027133;28;20187;-56
2022/04/20 11:06:28;;;;;;;13.63;12.33;;;9.90;97.70;;;;;;5028226;28;20418;-56
2022/04/20 11:08:59;;;;;;;13.67;12.37;;;9.90;99.50;;;;;;5027571;28;20449;-57
2022/04/20 11:20:08;;;;;;;13.40;12.20;;;9.40;99.90;;;;;;5026508;28;20528;-55
2022/04/20 11:22:44;;;;;;;14.20;12.27;;;9.40;99.90;;;;;;5031773;28;20896;-53
2022/04/20 11:25:11;;;;;;;13.73;12.53;;;9.30;99.90;;;;;;5028390;28;20213;-55
2022/04/20 11:27:37;;;;;;;14.00;12.57;;;9.30;99.90;;;;;;5031815;28;20413;-56
2022/04/20 11:30:06;;;;;;;12.93;11.63;;;9.40;99.90;;;;;;5031235;28;20429;-56
2022/04/20 11:32:32;;;;;;;13.90;12.57;;;9.50;99.90;;;;;;5042075;28;20421;-54
2022/04/20 11:35:11;;;;;;;13.93;12.37;;;9.60;99.90;;;;;;5019014;28;20442;-57
2022/04/20 11:37:39;;;;;;;14.50;13.10;;;9.60;99.90;;;;;;5035472;28;20720;-56
2022/04/20 11:40:12;;;;;;;13.17;11.97;;;9.70;99.90;;;;;;5032795;28;20548;-57
2022/04/20 11:42:38;;;;;;;14.30;12.80;;;9.70;99.90;;;;;;5037492;28;20554;-56
2022/04/20 11:45:06;;;;;;;14.70;13.40;;;9.80;99.90;;;;;;5012711;28;20453;-54
2022/04/20 11:47:39;;;;;;;14.73;13.33;;;9.80;99.90;;;;;;5040266;28;20648;-55
2022/04/20 11:50:08;;;;;;;14.90;13.60;;;10.00;99.90;;;;;;5031289;28;20920;-55
2022/04/20 11:52:33;;;;;;;17.13;15.47;;;10.20;99.90;;;;;;5032238;28;20491;-56
2022/04/20 11:55:06;;;;;;;15.43;13.90;;;10.40;99.90;;;;;;5030509;28;20445;-55
2022/04/20 11:57:32;;;;;;;14.77;13.27;;;10.60;99.90;;;;;;5030333;28;20585;-57
2022/04/20 11:59:59;;;;;;;15.67;14.20;;;10.70;99.90;;;;;;5030916;28;20504;-56
2022/04/20 12:02:25;;;;;;;15.40;13.97;;;11.00;99.90;;;;;;5030050;28;20569;-56
2022/04/20 12:05:09;;;;;;;14.90;13.50;;;11.40;99.90;;;;;;5020665;28;20438;-52
2022/04/20 12:07:36;;;;;;;13.87;12.60;;;11.60;99.90;;;;;;5031910;28;20778;-53
2022/04/20 12:10:03;;;;;;;14.97;13.63;;;11.60;99.90;;;;;;5038810;28;20445;-54
2022/04/20 12:12:30;;;;;;;13.93;12.73;;;11.90;99.90;;;;;;5030235;28;20422;-57
2022/04/20 12:15:08;;;;;;;15.97;14.57;;;12.00;99.90;;;;;;5038990;28;20433;-57
2022/04/20 12:17:34;;;;;;;15.43;13.93;;;12.10;99.90;;;;;;5028681;28;20435;-53
2022/04/20 12:20:00;;;;;;;14.50;13.20;;;12.20;99.90;;;;;;5031334;28;20466;-56
2022/04/20 12:22:25;;;;;;;14.70;13.40;;;12.10;99.90;;;;;;5030793;28;20194;-51
2022/04/20 12:25:05;;;;;;;15.00;13.63;;;12.20;99.90;;;;;;5032322;28;20194;-54
2022/04/20 12:27:31;;;;;;;17.43;14.17;;;12.20;99.90;;;;;;5019962;28;20206;-54
2022/04/20 12:29:58;;;;;;;16.03;14.57;;;12.00;99.90;;;;;;5023192;28;20460;-54
2022/04/20 12:32:32;;;;;;;15.87;14.37;;;11.90;99.90;;;;;;5031033;28;20249;-56
2022/04/20 12:35:01;;;;;;;13.80;12.53;;;11.50;99.90;;;;;;5028962;28;20432;-52
2022/04/20 12:44:35;;;;;;;15.13;13.73;;;11.00;99.90;;;;;;4989300;28;20498;-55
2022/04/20 12:47:14;;;;;;;13.90;12.60;;;10.80;99.90;;;;;;4990608;28;20440;-54
2022/04/20 12:49:41;;;;;;;14.37;13.07;;;10.90;99.90;;;;;;4992986;28;20449;-55
2022/04/20 12:52:22;;;;;;;15.00;13.53;;;10.80;99.90;;;;;;4999880;28;20470;-50
2022/04/20 12:55:06;;;;;;;14.00;12.50;;;10.80;99.90;;;;;;4990619;28;20453;-56
2022/04/20 13:03:08;;;;;;;14.23;12.97;;;10.90;99.90;;;;;;4985934;28;21011;-52
2022/04/20 13:05:36;;;;;;;15.10;13.60;;;10.90;99.90;;;;;;4993471;28;20462;-55
2022/04/20 13:08:02;;;;;;;15.53;14.03;;;10.90;99.90;;;;;;4990607;28;20431;-54
2022/04/20 13:10:33;;;;;;;16.17;14.60;;;10.80;99.90;;;;;;4990914;28;20557;-55
2022/04/20 13:12:59;;;;;;;15.67;14.17;;;10.60;99.90;;;;;;5000180;28;20979;-54
2022/04/20 13:15:25;;;;;;;16.07;14.57;;;10.50;99.90;;;;;;4989686;28;20428;-55
2022/04/20 13:17:51;;;;;;;15.93;14.33;;;10.40;99.90;;;;;;4992843;28;20671;-55